DATOS DEL TIEMPO

AYER
Time Temp. Dewp. Hum. Bar.
00:40 4.1 2.1 87 1012.4
00:52 4.1 2.1 87 1012.4
01:20 4.1 2.1 87 1012.4
01:27 4.1 2.1 87 1012.7
01:58 4 2 87 1012.9
02:01 4 2 87 1013
02:12 3.9 1.9 87 1013.2
02:22 3.9 1.9 87 1013.3
02:34 3.8 1.8 87 1013.4
02:43 3.8 2 88 1013.6
02:51 3.9 2.1 88 1013.6
03:07 3.8 2 88 1013.7
03:18 3.7 1.9 88 1013.8
03:19 3.7 1.9 88 1014
03:34 3.7 1.9 88 1014
03:48 3.6 1.8 88 1014.1
04:01 3.5 1.7 88 1014.2
04:17 3.4 1.6 88 1014.3
04:29 3.3 1.5 88 1014.3
04:31 3.3 1.5 88 1014.3
04:46 3.1 1.3 88 1014.4
04:55 3 1.2 88 1014.5
05:00 2.9 1.1 88 1014.6
05:14 2.8 1 88 1014.6
05:27 2.7 0.9 88 1014.6
05:39 2.4 0.6 88 1014.6
05:41 2.3 0.5 88 1014.8
05:54 2.1 0.3 88 1014.9
06:02 1.9 0.1 88 1015.2
06:26 1.5 -0.2 88 1015.3
06:39 1.3 -0.4 88 1015.3
06:41 1.3 -0.4 88 1015.5
06:54 1.3 -0.4 88 1015.5
07:08 1.2 -0.5 88 1015.6
07:26 0.9 -0.8 88 1015.5
07:34 0.9 -0.8 88 1015.5
07:50 1 -0.5 89 1015.5
08:00 1 -0.5 89 1015.6
08:08 0.8 -0.7 89 1015.6
08:11 0.8 -0.7 89 1015.7
08:27 0.8 -0.7 89 1015.8
08:38 1 -0.4 90 1015.9
08:46 1.4 0 90 1016
08:57 2.5 1.2 91 1015.9
09:09 4.1 2.8 91 1016
09:11 4.3 3 91 1016
09:30 6.3 4.6 89 1015.9
09:40 5.1 3 86 1016
09:45 4.5 2.2 85 1015.9
09:59 3 0.7 85 1015.7
10:11 2.7 0.8 87 1015.8
10:15 2.7 0.8 87 1015.9
10:28 2.1 0.2 87 1016.2
10:42 2.2 0.4 88 1016.3
10:56 2.6 0.8 88 1016.2
12:01 3.5 1.7 88 1015.9
12:04 3.5 1.7 88 1015.2
12:47 3.6 1.8 88 1015.1
14:21 3.7 1.7 87 1013.6
15:51 3.2 1.4 88 1012.5
15:52 3.2 1.4 88 1012.4
16:03 3.1 1.3 88 1012.2
16:13 3 1.2 88 1012
16:27 2.8 1 88 1011.9
16:41 2.7 0.9 88 1011.5
17:16 2.7 1.1 89 1011.5
17:20 2.7 1.1 89 1011.5
17:30 2.8 1.2 89 1011
18:58 3.1 0.8 85 1010.2
19:38 3 0.6 84 1009.7
19:46 3.1 0.7 84 1009.6
19:49 3.1 0.7 84 1009.4
20:00 3.2 0.8 84 1008.7
21:22 3.3 0.9 84 1007.6
21:30 3.3 0.9 84 1007.4
21:41 3 0.6 84 1007.2
21:52 2.8 0.5 85 1007
22:02 2.5 0.4 86 1006.9
22:11 2.3 0.2 86 1006.6
22:22 2.1 0.2 87 1006.5
22:32 1.9 0 87 1006.3
22:42 1.7 -0.1 88 1006
22:52 1.6 -0.1 88 1005.8
23:02 1.4 -0.3 88 1005.6
23:12 1.3 -0.4 88 1005.4
23:22 1.1 -0.6 88 1005.3
23:32 1 -0.5 89 1005.3
23:43 0.9 -0.6 89 1005.3
23:52 0.9 -0.6 89 1005.2

ESTADÍSTICA DEL DÍA

2021-12-06
TEMPERATURA
NORMAL
2.7
ALTO
6.3
09:30
BAJA
0.8
08:08
PRESIÓN
NORMAL
1012.6
ALTO
1016.3
10:42
BAJA
1005.2
23:52
PUNTO DE ROCÍO
NORMAL
0.9
ALTO
4.6
09:30
BAJA
-0.8
07:26
HUMEDAD
NORMAL
88
ALTO
91
08:57
BAJA
84
19:38
TEMPERATURA (°C)
BAJA
0.8
ALTO
6.3
NORMAL
2.7
PRESIÓN (hpa)
BAJA
1005.2
ALTO
1016.3
NORMAL
1012.6
DEVICE